»·PEaware :: N331AB KBUR-KLAS

N331AB :: KBUR-KLAS

FLIGHT INFORMATION

Flight Status: Arrived
Operator: Privately registered:
United States
More flights under this callsign
Pilot: Lucky B. (4160)
Aircraft: Diamond DA-62
(DA62)
More flights by this aircraft type
Origin: KBUR Bob Hope-Burbank
United States
Destination: KLAS McCarran Intl
United States
More flights between these airports :: More routes between these airports
Route: VNY3 DAG CRESO4
File this flight plan on PilotEdge
Remarks:
Altitude:
(Current/Filed)
11,000ft
Speed:
(Current/Filed)
150kts
Departed: 05-Jan-21 09:23 PM
Arrived: 05-Jan-21 10:52 PM
Distance/Time
Traveled:
193nm/1:29
Distance/Time
To Go:
Arrived

Flight Plot

Page will automatically refresh every two minutes.

Flight plan parsing failed; only flown route is shown


Map Options




Map Legend


Flown Route
Filed Route
Departure Airport
Arrival Airport
Navaid (VOR, NDB)
Fix

Horizontal Profiles

Position Reports

Time Latitude Longitude Heading Altitude Ground
Speed
05-Jan-21 21:11 34.207782 -118.360944 264 736ft 0kts
05-Jan-21 21:12 34.207782 -118.360944 264 736ft 0kts
05-Jan-21 21:13 34.207782 -118.360944 264 736ft 0kts
05-Jan-21 21:13 34.207782 -118.360944 264 736ft 0kts
05-Jan-21 21:15 34.207782 -118.360944 264 736ft 0kts
05-Jan-21 21:16 34.207782 -118.360944 264 736ft 0kts
05-Jan-21 21:17 34.207782 -118.360944 264 736ft 0kts
05-Jan-21 21:17 34.207782 -118.360944 264 736ft 0kts
05-Jan-21 21:18 34.207872 -118.360523 71 736ft 3kts
05-Jan-21 21:20 34.209454 -118.360594 41 736ft 0kts
05-Jan-21 21:20 34.209504 -118.360525 55 736ft 2kts
05-Jan-21 21:21 34.209062 -118.359569 168 736ft 0kts
05-Jan-21 21:22 34.200957 -118.356935 160 970ft 71kts
05-Jan-21 21:23 34.173916 -118.362758 222 1988ft 125kts
05-Jan-21 21:24 34.172329 -118.402861 312 3197ft 141kts
05-Jan-21 21:25 34.206752 -118.431305 308 3940ft 167kts
05-Jan-21 21:26 34.221459 -118.480393 281 3993ft 145kts
05-Jan-21 21:27 34.223368 -118.527840 269 3998ft 141kts
05-Jan-21 21:28 34.226489 -118.574014 316 4002ft 140kts
05-Jan-21 21:29 34.262252 -118.593106 336 4000ft 141kts
05-Jan-21 21:30 34.292348 -118.607935 336 5032ft 99kts
05-Jan-21 21:31 34.319672 -118.601005 62 6176ft 139kts
05-Jan-21 21:32 34.337781 -118.556519 59 7359ft 153kts
05-Jan-21 21:33 34.359164 -118.511228 60 8553ft 157kts
05-Jan-21 21:34 34.381067 -118.464775 58 9752ft 160kts
05-Jan-21 21:35 34.407448 -118.421607 52 10831ft 161kts
05-Jan-21 21:36 34.436228 -118.375804 52 10987ft 174kts
05-Jan-21 21:37 34.464893 -118.330145 52 10997ft 169kts
05-Jan-21 21:38 34.493272 -118.284914 52 11000ft 168kts
05-Jan-21 21:39 34.521515 -118.239840 52 10999ft 168kts
05-Jan-21 21:40 34.549790 -118.194629 52 10997ft 168kts
05-Jan-21 21:41 34.577530 -118.150220 52 10997ft 168kts
05-Jan-21 21:42 34.606705 -118.103448 52 10736ft 173kts
05-Jan-21 21:43 34.631212 -118.054833 73 10715ft 169kts
05-Jan-21 21:44 34.638526 -117.998903 82 10714ft 168kts
05-Jan-21 21:45 34.644693 -117.942702 82 10714ft 168kts
05-Jan-21 21:46 34.650798 -117.886729 82 10714ft 168kts
05-Jan-21 21:47 34.656886 -117.830661 82 10713ft 168kts
05-Jan-21 21:48 34.663042 -117.774333 80 10713ft 168kts
05-Jan-21 21:49 34.675404 -117.719816 72 10714ft 168kts
05-Jan-21 21:50 34.689265 -117.665732 72 10713ft 168kts
05-Jan-21 21:51 34.703139 -117.611712 72 10714ft 168kts
05-Jan-21 21:52 34.716951 -117.557405 72 10713ft 168kts
05-Jan-21 21:53 34.730797 -117.503284 72 10713ft 168kts
05-Jan-21 21:54 34.744546 -117.449311 72 10713ft 168kts
05-Jan-21 21:55 34.758355 -117.394973 72 10713ft 168kts
05-Jan-21 21:56 34.772058 -117.340933 72 10714ft 170kts
05-Jan-21 21:57 34.786907 -117.282242 72 10714ft 188kts
05-Jan-21 21:58 34.802441 -117.220718 72 10713ft 191kts
05-Jan-21 21:59 34.818003 -117.158930 72 10713ft 192kts
05-Jan-21 22:00 34.833525 -117.097143 72 10713ft 192kts
05-Jan-21 22:01 34.849157 -117.034786 72 10713ft 192kts
05-Jan-21 22:02 34.864671 -116.972743 72 10713ft 192kts
05-Jan-21 22:10 35.008174 -116.475408 61 10713ft 197kts
05-Jan-21 22:11 35.034071 -116.417055 61 10714ft 197kts
05-Jan-21 22:12 35.060163 -116.358176 61 10714ft 197kts
05-Jan-21 22:13 35.086241 -116.299222 61 10712ft 197kts
05-Jan-21 22:14 35.112242 -116.240353 61 10714ft 197kts
05-Jan-21 22:15 35.138239 -116.181383 61 10713ft 197kts
05-Jan-21 22:16 35.164137 -116.122538 61 10714ft 197kts
05-Jan-21 22:17 35.190032 -116.063584 61 10714ft 197kts
05-Jan-21 22:18 35.215921 -116.004553 61 10714ft 197kts
05-Jan-21 22:19 35.241819 -115.945398 61 10714ft 197kts
05-Jan-21 22:20 35.267647 -115.886302 61 10714ft 197kts
05-Jan-21 22:21 35.293164 -115.827812 61 10713ft 190kts
05-Jan-21 22:22 35.320589 -115.773427 46 10714ft 187kts
05-Jan-21 22:23 35.354001 -115.729404 46 10713ft 186kts
05-Jan-21 22:24 35.388968 -115.682755 47 10714ft 186kts
05-Jan-21 22:25 35.424054 -115.635902 47 10714ft 186kts
05-Jan-21 22:26 35.459255 -115.588831 47 10715ft 186kts
05-Jan-21 22:27 35.494339 -115.541847 47 10713ft 186kts
05-Jan-21 22:28 35.529268 -115.495031 47 10713ft 186kts
05-Jan-21 22:29 35.564943 -115.447166 47 10180ft 207kts
05-Jan-21 22:30 35.605940 -115.401585 32 8482ft 182kts
05-Jan-21 22:31 35.644078 -115.371781 31 6998ft 163kts
05-Jan-21 22:32 35.679794 -115.344044 31 6731ft 142kts
05-Jan-21 22:33 35.711989 -115.319007 31 6716ft 133kts
05-Jan-21 22:34 35.743896 -115.294212 31 6722ft 153kts
05-Jan-21 22:35 35.783273 -115.263782 31 6711ft 174kts
05-Jan-21 22:36 35.825711 -115.231043 31 6712ft 182kts
05-Jan-21 22:37 35.868880 -115.197748 31 6713ft 184kts
05-Jan-21 22:38 35.913381 -115.171281 22 6710ft 166kts
05-Jan-21 22:39 35.953119 -115.150206 22 6714ft 149kts
05-Jan-21 22:40 35.989020 -115.131178 22 6709ft 130kts
05-Jan-21 22:41 36.014418 -115.117611 22 6710ft 110kts
05-Jan-21 22:42 36.047393 -115.100090 22 5625ft 151kts
05-Jan-21 22:43 36.085601 -115.079855 22 4782ft 137kts
05-Jan-21 22:45 36.116561 -115.063321 22 4713ft 105kts
05-Jan-21 22:46 36.139270 -115.051010 22 4703ft 75kts
05-Jan-21 22:47 36.162525 -115.056182 294 3267ft 175kts
05-Jan-21 22:48 36.163728 -115.092690 230 2461ft 83kts
05-Jan-21 22:49 36.147140 -115.109840 220 3213ft 87kts
05-Jan-21 22:50 36.123942 -115.134329 235 3377ft 122kts
05-Jan-21 22:51 36.101113 -115.155543 206 2360ft 92kts
05-Jan-21 22:52 36.089753 -115.162131 205 2183ft 25kts
05-Jan-21 22:53 36.089352 -115.163570 266 2183ft 11kts
05-Jan-21 22:54 36.087173 -115.165991 206 2182ft 11kts
05-Jan-21 22:55 36.084995 -115.168612 280 2181ft 0kts
05-Jan-21 22:56 36.084995 -115.168612 280 2181ft 0kts

Navigation Log

Ident Type
Flight plan parsing failed, navigation log unavailable